Lucky Five Ranch (79) Station Data

Red Flag Warning: No
Fire Weather Zone: 258
SDGE Region: Mountain Empire
Lat/Lon: 32.933/-116.528

Observations

Time Wind Speed/Gust Temp(F) RH Fuel Moist Fuel Temp(F) Dewpt(F) Tmax(F) Tmin(F) Accum Precip 10-min Precip SL Press(mb)
5/24 8:20am 161 5 G 12 65° 38% - - 39° 72.6° 64.4° - - -
5/24 8:10am 186 3 G 6 65° 39% - - 39° 72.6° 64.4° - - -
5/24 8:00am 212 4 G 8 66° 31% - - 34° 72.6° 64.4° - - -
5/24 7:50am 290 3 G 6 67° 21% - - 25° 72.6° 64.4° - - -
5/24 7:40am 230 3 G 7 68° 14% - - 16° 72.6° 64.4° - - -
5/24 7:30am 333 2 G 5 71° 12% - - 14° 72.6° 64.4° - - -
5/24 7:20am 45 2 G 3 69° 10% - - 71.8° 64.4° - - -
5/24 7:10am 93 2 G 4 69° 11% - - 12° 71.8° 64.4° - - -
5/24 7:00am 105 2 G 4 69° 9% - - 71.8° 64.4° - - -
5/24 6:50am 76 3 G 4 69° 9% - - 71.8° 64.4° - - -
5/24 6:40am 50 3 G 4 69° 9% - - 71.8° 64.4° - - -
5/24 6:30am 45 2 G 4 68° 10% - - 71.8° 64.4° - - -
5/24 6:20am 208 1 G 4 68° 10% - - 71.8° 64.4° - - -
5/24 6:10am 94 1 G 3 67° 10% - - 71.8° 64.4° - - -
5/24 6:00am 81 1 G 3 67° 11% - - 11° 71.8° 64.4° - - -
5/24 5:50am 62 2 G 4 67° 11% - - 11° 71.8° 64.4° - - -
5/24 5:40am 70 3 G 4 66° 12% - - 11° 71.8° 64.4° - - -
5/24 5:30am 50 3 G 4 66° 11% - - 11° 71.8° 64.4° - - -
5/24 5:20am 71 1 G 3 66° 12% - - 11° 71.8° 64.4° - - -
5/24 5:10am 80 1 G 3 66° 12% - - 12° 71.8° 64.4° - - -
5/24 5:00am 319 2 G 4 66° 12% - - 12° 71.8° 64.4° - - -
5/24 4:50am 115 2 G 6 65° 13% - - 13° 71.8° 64.4° - - -
5/24 4:40am 108 1 G 4 65° 14% - - 14° 71.8° 64.4° - - -
5/24 4:30am 99 1 G 4 65° 14% - - 15° 71.8° 64.8° - - -
5/24 4:20am 92 1 G 2 65° 14% - - 16° 71.8° 65.3° - - -
5/24 4:10am 111 1 G 3 66° 14% - - 15° 71.8° 65.4° - - -
5/24 4:00am 205 2 G 6 67° 13% - - 15° 71.8° 66.1° - - -
5/24 3:50am 202 2 G 7 67° 12% - - 13° 71.8° 66.1° - - -
5/24 3:40am 203 2 G 5 68° 9% - - 71.8° 67.2° - - -
5/24 3:30am 151 1 G 3 68° 8% - - 71.8° 67.8° - - -
5/24 3:20am 96 1 G 2 69° 8% - - 71.8° 67.8° - - -
5/24 3:10am 78 1 G 3 69° 8% - - 71.8° 67.8° - - -
5/24 3:00am 68 2 G 4 69° 8% - - 71.8° 67.8° - - -
5/24 2:50am 67 2 G 4 69° 8% - - 71.8° 67.8° - - -
5/24 2:40am 81 3 G 6 70° 8% - - 71.8° 67.8° - - -
5/24 2:30am 99 2 G 5 70° 7% - - 71.8° 67.8° - - -
5/24 2:20am 81 0 G 1 70° 7% - - 71.8° 67.8° - - -
5/24 2:10am 299 3 G 5 71° 6% - - 71.8° 67.8° - - -
5/24 2:00am 327 2 G 4 71° 7% - - 71.8° 67.8° - - -
5/24 1:50am 74 3 G 5 70° 9% - - 71.1° 67.8° - - -
5/24 1:40am 71 2 G 4 70° 9% - - 71.1° 67.8° - - -
5/24 1:30am 71 5 G 6 69° 11% - - 11° 71.1° 67.8° - - -
5/24 1:20am 57 4 G 5 69° 12% - - 14° 71.1° 67.8° - - -
5/24 1:10am 72 2 G 5 68° 13% - - 16° 71.1° 67.8° - - -
5/24 1:00am 167 1 G 3 68° 13% - - 16° 71.1° 67.8° - - -
5/24 12:50am 205 2 G 4 69° 12% - - 15° 71.1° 69° - - -
5/24 12:40am 201 1 G 2 70° 10% - - 12° 71.1° 69.4° - - -
5/24 12:30am 67 0 G 2 70° 10% - - 11° 71.1° 69.6° - - -
5/24 12:20am 97 2 G 3 70° 10% - - 11° 71.1° 69.9° - - -
5/24 12:10am 335 1 G 5 70° 10% - - 11° 71.1° 69.9° - - -
5/24 12:00am 26 2 G 3 70° 10% - - 12° 85.6° 68.7° - - -
5/23 11:50pm 48 3 G 4 70° 11% - - 12° 85.6° 68.7° - - -
5/23 11:40pm 44 1 G 3 71° 11% - - 13° 85.6° 68.7° - - -
5/23 11:30pm 309 2 G 5 72° 10% - - 13° 85.6° 68.7° - - -
5/23 11:20pm 314 1 G 4 72° 10% - - 13° 85.6° 68.7° - - -
5/23 11:10pm 299 1 G 2 72° 11% - - 14° 85.6° 68.7° - - -
5/23 11:00pm 291 1 G 3 72° 11% - - 14° 85.6° 68.7° - - -
5/23 10:50pm 303 2 G 4 72° 11% - - 14° 85.6° 68.7° - - -
5/23 10:40pm 312 2 G 4 72° 11% - - 15° 85.6° 68.7° - - -
5/23 10:30pm 301 2 G 5 72° 11% - - 15° 85.6° 68.7° - - -
5/23 10:20pm 293 1 G 3 72° 11% - - 15° 85.6° 68.7° - - -
5/23 10:10pm 351 2 G 6 73° 11% - - 15° 85.6° 68.7° - - -
5/23 10:00pm 30 2 G 2 72° 12% - - 17° 85.6° 68.7° - - -
5/23 9:50pm 36 2 G 3 72° 13% - - 18° 85.6° 68.7° - - -
5/23 9:40pm 61 1 G 2 71° 14% - - 19° 85.6° 68.7° - - -
5/23 9:30pm 74 1 G 3 71° 14% - - 20° 85.6° 68.7° - - -
5/23 9:20pm 182 1 G 2 71° 14% - - 20° 85.6° 68.7° - - -
5/23 9:10pm 305 3 G 5 72° 14% - - 19° 85.6° 68.7° - - -
5/23 9:00pm 288 2 G 4 72° 15% - - 22° 85.6° 68.7° - - -
5/23 8:50pm 304 2 G 4 71° 17% - - 24° 85.6° 68.7° - - -
5/23 8:40pm 329 0 G 3 71° 20% - - 28° 85.6° 68.7° - - -
5/23 8:30pm 49 1 G 3 70° 22% - - 30° 85.6° 68.7° - - -
5/23 8:20pm 53 2 G 4 70° 25% - - 32° 85.6° 68.7° - - -
5/23 8:10pm 78 1 G 3 69° 28% - - 35° 85.6° 68.7° - - -
5/23 8:00pm 251 0 G 2 70° 30% - - 37° 85.6° 68.7° - - -
5/23 7:50pm 56 1 G 5 69° 32% - - 38° 85.6° 68.7° - - -
5/23 7:40pm 118 1 G 2 70° 32% - - 39° 85.6° 69.4° - - -
5/23 7:30pm 216 1 G 3 73° 30% - - 40° 85.6° 70.1° - - -
5/23 7:20pm 258 2 G 5 73° 29% - - 39° 85.6° 70.1° - - -
5/23 7:10pm 250 3 G 7 74° 30% - - 40° 85.6° 70.1° - - -
5/23 7:00pm 256 6 G 8 75° 26% - - 37° 85.6° 70.1° - - -
5/23 6:50pm 233 6 G 8 75° 26% - - 38° 85.6° 70.1° - - -
5/23 6:40pm 236 8 G 11 76° 24% - - 36° 85.6° 70.1° - - -
5/23 6:30pm 233 9 G 12 76° 23% - - 36° 85.6° 70.1° - - -
5/23 6:20pm 229 9 G 12 77° 22% - - 35° 85.6° 70.1° - - -
5/23 6:10pm 237 9 G 12 77° 20% - - 33° 85.6° 70.1° - - -
5/23 6:00pm 228 9 G 13 77° 21% - - 34° 85.6° 70.1° - - -
5/23 5:50pm 245 10 G 14 77° 19% - - 32° 85.6° 70.1° - - -
5/23 5:40pm 244 10 G 14 77° 19% - - 32° 85.6° 70.1° - - -
5/23 5:30pm 249 11 G 15 77° 21% - - 34° 85.6° 70.1° - - -
5/23 5:20pm 242 12 G 15 76° 25% - - 37° 85.6° 70.1° - - -
5/23 5:10pm 239 13 G 18 76° 26% - - 39° 85.6° 70.1° - - -
5/23 5:00pm 236 11 G 17 76° 29% - - 41° 85.6° 70.1° - - -
5/23 4:50pm 239 11 G 18 76° 28% - - 41° 85.6° 70.1° - - -
5/23 4:40pm 244 11 G 16 76° 30% - - 42° 85.6° 70.1° - - -
5/23 4:30pm 223 11 G 17 77° 31% - - 43° 85.6° 70.1° - - -
5/23 4:20pm 238 10 G 18 77° 28% - - 41° 85.6° 70.1° - - -
5/23 4:10pm 245 13 G 18 78° 24% - - 37° 85.6° 70.1° - - -
5/23 4:00pm 250 12 G 18 78° 24% - - 39° 85.6° 70.1° - - -
5/23 3:50pm 252 14 G 19 79° 22% - - 37° 85.6° 70.1° - - -
5/23 3:40pm 252 13 G 19 79° 20% - - 34° 85.6° 70.1° - - -
5/23 3:30pm 259 15 G 20 79° 18% - - 32° 85.6° 70.1° - - -
5/23 3:20pm 254 13 G 20 80° 17% - - 30° 85.6° 70.1° - - -
5/23 3:10pm 258 16 G 22 80° 16% - - 29° 85.6° 70.1° - - -
5/23 3:00pm 252 14 G 20 80° 17% - - 30° 85.6° 70.1° - - -
5/23 2:50pm 248 13 G 20 80° 17% - - 32° 85.6° 70.1° - - -
5/23 2:40pm 248 13 G 20 80° 17% - - 32° 85.6° 70.1° - - -
5/23 2:30pm 258 14 G 21 80° 22% - - 38° 85.6° 70.1° - - -
5/23 2:20pm 257 14 G 21 81° 21% - - 37° 85.6° 70.1° - - -
5/23 2:10pm 255 15 G 20 81° 22% - - 38° 85.6° 70.1° - - -
5/23 2:00pm 251 14 G 20 81° 21% - - 37° 85.6° 70.1° - - -
5/23 1:50pm 216 8 G 18 83° 18% - - 35° 85.6° 70.1° - - -
5/23 1:40pm 300 5 G 12 84° 12% - - 27° 85.6° 70.1° - - -
5/23 1:30pm 313 7 G 14 84° 12% - - 27° 85.6° 70.1° - - -
5/23 1:20pm 128 5 G 14 84° 11% - - 25° 85.6° 70.1° - - -
5/23 1:10pm 106 5 G 11 84° 11% - - 24° 85.6° 70.1° - - -
5/23 1:00pm 149 3 G 8 84° 15% - - 32° 85.6° 70.1° - - -
5/23 12:50pm 295 3 G 7 83° 15% - - 31° 83.6° 70.1° - - -
5/23 12:40pm 178 5 G 15 81° 18% - - 34° 83.6° 70.1° - - -
5/23 12:30pm 107 12 G 24 82° 13% - - 26° 83.6° 70.1° - - -
5/23 12:20pm 99 11 G 18 83° 12% - - 25° 83.6° 70.1° - - -
5/23 12:10pm 67 6 G 18 82° 11% - - 23° 83.4° 70.1° - - -
5/23 12:00pm 81 9 G 16 82° 11% - - 24° 83.4° 70.1° - - -
5/23 11:50am 112 10 G 16 82° 12% - - 25° 83.4° 70.1° - - -
5/23 11:40am 131 9 G 17 82° 12% - - 25° 83.2° 70.1° - - -
5/23 11:30am 144 9 G 15 82° 12% - - 24° 82.4° 70.1° - - -
5/23 11:20am 97 8 G 16 82° 12% - - 23° 82.4° 70.1° - - -
5/23 11:10am 81 11 G 20 82° 12% - - 23° 82.4° 70.1° - - -
5/23 11:00am 99 7 G 16 81° 12% - - 23° 82° 70.1° - - -
5/23 10:50am 91 10 G 17 81° 12% - - 23° 82° 70.1° - - -
5/23 10:40am 86 10 G 18 81° 12% - - 24° 82° 70.1° - - -
5/23 10:30am 85 8 G 14 81° 13% - - 26° 82° 70.1° - - -
5/23 10:20am 80 8 G 17 81° 12% - - 24° 81.1° 70.1° - - -
5/23 10:10am 75 6 G 14 80° 14% - - 26° 80.9° 70.1° - - -
5/23 10:00am 67 8 G 13 80° 13% - - 25° 80.3° 70.1° - - -
5/23 9:50am 73 8 G 15 80° 13% - - 25° 80.3° 70.1° - - -
5/23 9:40am 79 8 G 12 80° 14% - - 26° 80.1° 70.1° - - -
5/23 9:30am 74 7 G 12 80° 14% - - 27° 79.9° 70.1° - - -
5/23 9:20am 71 7 G 11 79° 14% - - 27° 79.4° 70.1° - - -
5/23 9:10am 69 7 G 12 79° 15% - - 28° 79.1° 70.1° - - -
5/23 9:00am 55 5 G 11 78° 16% - - 29° 79.1° 70.1° - - -
5/23 8:50am 127 1 G 3 77° 27% - - 40° 79.1° 70.1° - - -
5/23 8:40am 125 1 G 2 78° 23% - - 36° 79.1° 70.1° - - -
5/23 8:30am 110 1 G 1 77° 21% - - 34° 79.1° 70.1° - - -
5/23 8:20am 142 0 G 1 78° 23% - - 38° 79.1° 70.1° - - -
5/23 8:10am 92 1 G 4 78° 19% - - 32° 79.1° 70.1° - - -
5/23 8:00am 80 2 G 3 79° 20% - - 33° 79.1° 70.1° - - -
5/23 7:50am 58 2 G 3 77° 17% - - 29° 77.9° 70.1° - - -
5/23 7:40am 54 2 G 3 76° 16% - - 27° 77.8° 70.1° - - -
5/23 7:30am 57 2 G 4 77° 17% - - 29° 77.8° 70.1° - - -
5/23 7:20am 16 2 G 4 76° 19% - - 31° 76.5° 70.1° - - -
5/23 7:10am 18 3 G 5 75° 17% - - 27° 75.7° 70.1° - - -
5/23 7:00am 38 3 G 5 74° 17% - - 27° 75.1° 70.1° - - -
5/23 6:50am 47 4 G 7 74° 17% - - 26° 75.1° 70.1° - - -
5/23 6:40am 48 3 G 5 74° 16% - - 25° 74.5° 70.1° - - -
5/23 6:30am 58 3 G 5 73° 16% - - 25° 74.1° 70.1° - - -
5/23 6:20am 60 3 G 4 73° 16% - - 24° 73° 70.1° - - -
5/23 6:10am 57 2 G 5 73° 15% - - 23° 73° 70.1° - - -
5/23 6:00am 51 3 G 4 73° 15% - - 22° 73° 70.1° - - -